createdAt,value
2022-08-28T00:02:07.226Z,18.30
2022-08-28T00:04:36.880Z,18.25
2022-08-28T00:07:05.129Z,18.28
2022-08-28T00:09:32.997Z,18.26
2022-08-28T00:12:02.782Z,18.28
2022-08-28T00:14:30.530Z,18.26
2022-08-28T00:16:58.409Z,18.24
2022-08-28T00:19:26.285Z,18.25
2022-08-28T00:21:54.667Z,18.23
2022-08-28T00:24:22.473Z,18.22
2022-08-28T00:27:07.898Z,18.25
2022-08-28T00:29:37.126Z,18.26
2022-08-28T00:32:05.638Z,18.25
2022-08-28T00:34:33.849Z,18.24
2022-08-28T00:37:01.966Z,18.23
2022-08-28T00:39:29.791Z,18.21
2022-08-28T00:41:58.503Z,18.20
2022-08-28T00:44:28.743Z,18.15
2022-08-28T00:47:00.536Z,18.19
2022-08-28T00:49:30.447Z,18.18
2022-08-28T00:52:12.041Z,18.18
2022-08-28T00:54:44.190Z,18.20
2022-08-28T00:57:29.243Z,18.18
2022-08-28T00:59:57.320Z,18.17
2022-08-28T01:02:27.498Z,18.23
2022-08-28T01:04:56.053Z,18.24
2022-08-28T01:07:24.248Z,18.23
2022-08-28T01:09:54.475Z,18.21
2022-08-28T01:12:25.578Z,18.14
2022-08-28T01:14:58.541Z,18.12
2022-08-28T01:17:42.245Z,18.09
2022-08-28T01:20:14.924Z,18.02
2022-08-28T01:22:51.488Z,17.96
2022-08-28T01:25:23.449Z,17.94
2022-08-28T01:27:51.727Z,17.93
2022-08-28T01:30:22.562Z,17.88
2022-08-28T01:32:53.032Z,17.84
2022-08-28T01:35:25.691Z,17.80
2022-08-28T01:37:55.800Z,17.77
2022-08-28T01:40:28.584Z,17.73
2022-08-28T01:42:56.649Z,17.70
2022-08-28T01:45:26.365Z,17.67
2022-08-28T01:47:56.638Z,17.62
2022-08-28T01:50:24.530Z,17.59
2022-08-28T01:52:52.469Z,17.56
2022-08-28T01:55:20.519Z,17.54
2022-08-28T01:57:54.801Z,17.49
2022-08-28T02:00:25.780Z,17.48
2022-08-28T02:02:54.108Z,17.44
2022-08-28T02:05:21.933Z,17.44
2022-08-28T02:07:49.630Z,17.47
2022-08-28T02:10:17.623Z,17.42
2022-08-28T02:12:45.429Z,17.44
2022-08-28T02:15:14.566Z,17.44
2022-08-28T02:17:42.383Z,17.47
2022-08-28T02:20:10.801Z,17.47
2022-08-28T02:22:38.560Z,17.43
2022-08-28T02:25:07.692Z,17.43
2022-08-28T02:27:36.453Z,17.43
2022-08-28T02:30:04.915Z,17.41
2022-08-28T02:32:33.975Z,17.41
2022-08-28T02:35:01.793Z,17.42
2022-08-28T02:37:29.859Z,17.40
2022-08-28T02:39:59.430Z,17.38
2022-08-28T02:42:28.570Z,17.34
2022-08-28T02:44:56.322Z,17.29
2022-08-28T02:47:24.059Z,17.26
2022-08-28T02:49:53.378Z,17.23
2022-08-28T02:52:22.466Z,17.20
2022-08-28T02:54:50.131Z,17.17
2022-08-28T02:57:17.814Z,17.19
2022-08-28T02:59:45.610Z,17.13
2022-08-28T03:02:13.478Z,17.14
2022-08-28T03:04:41.429Z,17.07
2022-08-28T03:07:13.575Z,17.05
2022-08-28T03:09:43.611Z,16.98
2022-08-28T03:12:13.183Z,16.97
2022-08-28T03:14:41.115Z,16.94
2022-08-28T03:17:09.199Z,16.79
2022-08-28T03:19:36.933Z,16.78
2022-08-28T03:22:04.795Z,16.73
2022-08-28T03:24:33.283Z,16.73
2022-08-28T03:27:01.823Z,16.66
2022-08-28T03:29:29.517Z,16.62
2022-08-28T03:31:57.387Z,16.57
2022-08-28T03:34:24.982Z,16.51
2022-08-28T03:36:52.939Z,16.47
2022-08-28T03:39:20.708Z,16.45
2022-08-28T03:41:49.871Z,16.43
2022-08-28T03:44:17.672Z,16.39
2022-08-28T03:46:45.285Z,16.35
2022-08-28T03:49:13.535Z,16.31
2022-08-28T03:51:41.914Z,16.25
2022-08-28T03:54:09.651Z,16.22
2022-08-28T03:56:37.433Z,16.19
2022-08-28T03:59:06.565Z,16.18
2022-08-28T04:01:34.621Z,16.19
2022-08-28T04:04:02.435Z,16.20
2022-08-28T04:06:30.100Z,16.19
2022-08-28T04:09:00.211Z,16.18
2022-08-28T04:11:28.444Z,16.18
2022-08-28T04:13:56.227Z,16.15
2022-08-28T04:16:25.367Z,16.13
2022-08-28T04:18:53.135Z,16.13
2022-08-28T04:21:23.588Z,16.07
2022-08-28T04:23:52.014Z,15.98
2022-08-28T04:26:21.553Z,15.95
2022-08-28T04:28:49.587Z,15.94
2022-08-28T04:31:32.077Z,15.94
2022-08-28T04:34:02.866Z,15.89
2022-08-28T04:36:30.677Z,15.88
2022-08-28T04:38:58.802Z,15.87
2022-08-28T04:41:27.655Z,15.77
2022-08-28T04:43:57.191Z,15.78
2022-08-28T04:46:25.295Z,15.79
2022-08-28T04:48:53.170Z,15.80
2022-08-28T04:51:22.487Z,15.80
2022-08-28T04:53:50.189Z,15.76
2022-08-28T04:56:18.254Z,15.74
2022-08-28T04:58:46.597Z,15.74
2022-08-28T05:01:18.642Z,15.68
2022-08-28T05:03:47.054Z,15.67
2022-08-28T05:06:15.818Z,15.65
2022-08-28T05:08:44.998Z,15.62
2022-08-28T05:11:27.333Z,15.65
2022-08-28T05:14:04.772Z,15.62
2022-08-28T05:16:32.934Z,15.62
2022-08-28T05:19:01.202Z,15.64
2022-08-28T05:21:29.324Z,15.64
2022-08-28T05:23:59.169Z,15.62
2022-08-28T05:26:29.909Z,15.64
2022-08-28T05:28:59.250Z,15.65
2022-08-28T05:31:28.974Z,15.66
2022-08-28T05:33:56.947Z,15.64
2022-08-28T05:36:26.545Z,15.65
2022-08-28T05:39:06.081Z,15.62
2022-08-28T05:41:34.642Z,15.68
2022-08-28T05:44:05.061Z,15.74
2022-08-28T05:46:33.223Z,15.74
2022-08-28T05:49:01.205Z,15.72
2022-08-28T05:51:29.174Z,15.63
2022-08-28T05:53:58.147Z,15.72
2022-08-28T05:56:32.680Z,15.79
2022-08-28T05:59:01.774Z,15.76
2022-08-28T06:01:31.805Z,15.67
2022-08-28T06:04:01.826Z,15.76
2022-08-28T06:06:34.127Z,15.90
2022-08-28T06:09:06.111Z,15.90
2022-08-28T06:11:35.139Z,15.84
2022-08-28T06:14:04.519Z,15.85
2022-08-28T06:16:34.950Z,15.87
2022-08-28T06:19:02.686Z,15.84
2022-08-28T06:21:30.843Z,15.87
2022-08-28T06:23:58.878Z,15.84
2022-08-28T06:26:27.227Z,15.88
2022-08-28T06:28:59.873Z,15.86
2022-08-28T06:31:32.454Z,16.03
2022-08-28T06:34:01.535Z,15.98
2022-08-28T06:36:31.667Z,16.04
2022-08-28T06:39:02.293Z,16.11
2022-08-28T06:41:32.118Z,16.12
2022-08-28T06:44:01.800Z,16.20
2022-08-28T06:46:30.567Z,16.27
2022-08-28T06:48:58.347Z,16.34
2022-08-28T06:51:26.096Z,16.35
2022-08-28T06:53:53.975Z,16.28
2022-08-28T06:56:26.379Z,16.31
2022-08-28T06:58:56.067Z,16.29
2022-08-28T07:01:29.407Z,16.15
2022-08-28T07:04:00.274Z,16.20
2022-08-28T07:06:34.092Z,16.30
2022-08-28T07:09:02.012Z,16.23
2022-08-28T07:11:32.364Z,16.38
2022-08-28T07:14:01.593Z,16.47
2022-08-28T07:16:32.931Z,16.44
2022-08-28T07:19:03.695Z,16.45
2022-08-28T07:21:31.910Z,16.38
2022-08-28T07:24:00.221Z,16.29
2022-08-28T07:26:28.189Z,16.24
2022-08-28T07:29:00.715Z,16.31
2022-08-28T07:31:41.139Z,16.41
2022-08-28T07:34:10.482Z,16.34
2022-08-28T07:36:38.819Z,16.34
2022-08-28T07:39:07.720Z,16.41
2022-08-28T07:41:39.398Z,16.45
2022-08-28T07:44:25.952Z,16.54
2022-08-28T07:46:56.867Z,16.53
2022-08-28T07:49:25.648Z,16.46
2022-08-28T07:51:53.877Z,16.28
2022-08-28T07:54:22.595Z,16.43
2022-08-28T07:56:51.287Z,16.35
2022-08-28T07:59:20.311Z,16.45
2022-08-28T08:01:51.302Z,16.46
2022-08-28T08:04:21.911Z,16.44
2022-08-28T08:06:52.301Z,16.60
2022-08-28T08:09:23.503Z,16.62
2022-08-28T08:11:51.266Z,16.64
2022-08-28T08:14:19.065Z,16.62
2022-08-28T08:16:48.122Z,16.59
2022-08-28T08:19:17.384Z,16.68
2022-08-28T08:21:53.422Z,16.61
2022-08-28T08:24:26.068Z,16.69
2022-08-28T08:26:59.927Z,16.71
2022-08-28T08:29:29.407Z,16.70
2022-08-28T08:31:58.704Z,16.71
2022-08-28T08:34:26.787Z,16.74
2022-08-28T08:36:57.605Z,16.78
2022-08-28T08:39:25.229Z,16.90
2022-08-28T08:41:56.237Z,16.88
2022-08-28T08:44:33.717Z,16.92
2022-08-28T08:47:14.155Z,16.96
2022-08-28T08:49:48.844Z,17.08
2022-08-28T08:52:29.106Z,17.16
2022-08-28T08:55:10.311Z,17.22
2022-08-28T08:57:46.203Z,17.27
2022-08-28T09:00:17.490Z,17.10
2022-08-28T09:02:53.613Z,16.95
2022-08-28T09:05:25.018Z,16.92
2022-08-28T09:07:57.636Z,16.95
2022-08-28T09:10:30.752Z,16.91
2022-08-28T09:13:04.891Z,16.89
2022-08-28T09:15:35.137Z,16.92
2022-08-28T09:18:11.842Z,16.80
2022-08-28T09:20:39.917Z,16.94
2022-08-28T09:23:13.490Z,17.05
2022-08-28T09:25:55.460Z,17.08
2022-08-28T09:28:26.850Z,17.08
2022-08-28T09:31:02.134Z,17.23
2022-08-28T09:33:40.098Z,17.07
2022-08-28T09:36:28.458Z,17.13
2022-08-28T09:39:14.041Z,17.21
2022-08-28T09:42:07.413Z,17.29
2022-08-28T09:44:47.286Z,17.33
2022-08-28T09:47:46.455Z,17.38
2022-08-28T09:50:31.215Z,17.39
2022-08-28T09:53:14.404Z,17.52
2022-08-28T09:55:52.369Z,17.38
2022-08-28T09:58:22.175Z,17.39
2022-08-28T10:00:58.056Z,17.26
2022-08-28T10:03:32.106Z,17.18
2022-08-28T10:06:08.085Z,17.07
2022-08-28T10:08:54.983Z,17.13
2022-08-28T10:11:32.829Z,17.27
2022-08-28T10:14:10.777Z,17.28
2022-08-28T10:16:52.213Z,17.28
2022-08-28T10:19:32.987Z,17.33
2022-08-28T10:22:12.054Z,17.25
2022-08-28T10:24:58.018Z,17.25
2022-08-28T10:27:42.991Z,17.23
2022-08-28T10:30:16.136Z,17.27
2022-08-28T10:32:58.002Z,17.19
2022-08-28T10:35:32.806Z,17.31
2022-08-28T10:38:10.022Z,17.38
2022-08-28T10:40:41.652Z,17.42
2022-08-28T10:43:15.203Z,17.50
2022-08-28T10:45:43.238Z,17.56
2022-08-28T10:48:19.522Z,17.44
2022-08-28T10:50:51.261Z,17.60
2022-08-28T10:53:22.509Z,17.68
2022-08-28T10:55:56.932Z,17.82
2022-08-28T10:58:28.243Z,17.80
2022-08-28T11:01:01.183Z,17.85
2022-08-28T11:03:35.410Z,17.83
2022-08-28T11:06:10.368Z,17.80
2022-08-28T11:08:40.596Z,17.91
2022-08-28T11:11:13.658Z,17.92
2022-08-28T11:13:54.496Z,18.18
2022-08-28T11:16:24.951Z,18.28
2022-08-28T11:19:15.000Z,18.11
2022-08-28T11:21:48.488Z,18.18
2022-08-28T11:24:34.836Z,18.01
2022-08-28T11:27:17.669Z,18.28
2022-08-28T11:30:06.968Z,18.30
2022-08-28T11:32:55.996Z,18.31
2022-08-28T11:35:52.172Z,18.21
2022-08-28T11:39:13.373Z,18.23
2022-08-28T11:42:29.268Z,18.31
2022-08-28T11:44:58.829Z,18.53
2022-08-28T11:47:39.378Z,18.52
2022-08-28T11:50:20.127Z,18.58
2022-08-28T11:53:26.191Z,18.77
2022-08-28T11:56:30.486Z,18.93
2022-08-28T11:59:11.566Z,19.08
2022-08-28T12:01:40.718Z,18.96
2022-08-28T12:04:12.316Z,18.81
2022-08-28T12:06:51.891Z,18.79
2022-08-28T12:09:44.793Z,18.60
2022-08-28T12:12:47.044Z,18.66
2022-08-28T12:15:38.186Z,18.58
2022-08-28T12:18:14.389Z,18.70
2022-08-28T12:21:00.906Z,18.69
2022-08-28T12:23:42.026Z,18.75
2022-08-28T12:26:19.945Z,18.82
2022-08-28T12:28:51.891Z,18.94
2022-08-28T12:32:00.739Z,18.85
2022-08-28T12:34:42.158Z,18.79
2022-08-28T12:37:25.535Z,18.83
2022-08-28T12:39:55.641Z,18.89
2022-08-28T12:42:31.421Z,18.77
2022-08-28T12:45:02.360Z,18.90
2022-08-28T12:47:30.741Z,19.04
2022-08-28T12:49:59.893Z,19.11
2022-08-28T12:52:27.648Z,19.22
2022-08-28T12:54:56.564Z,19.43
2022-08-28T12:57:26.189Z,19.88
2022-08-28T12:59:56.343Z,19.92
2022-08-28T13:02:28.361Z,19.77
2022-08-28T13:05:01.298Z,19.45
2022-08-28T13:07:33.252Z,19.45
2022-08-28T13:10:05.063Z,19.54
2022-08-28T13:12:56.337Z,19.31
2022-08-28T13:15:43.895Z,19.28
2022-08-28T13:18:12.131Z,19.43
2022-08-28T13:20:41.276Z,19.50
2022-08-28T13:23:09.358Z,19.68
2022-08-28T13:25:39.114Z,19.88
2022-08-28T13:28:14.393Z,20.08
2022-08-28T13:30:42.309Z,19.83
2022-08-28T13:33:21.128Z,19.83
2022-08-28T13:35:51.250Z,19.86
2022-08-28T13:38:20.266Z,19.94
2022-08-28T13:40:58.529Z,19.97
2022-08-28T13:43:28.822Z,20.25
2022-08-28T13:45:56.759Z,20.36
2022-08-28T13:48:27.164Z,20.42
2022-08-28T13:51:00.037Z,20.44
2022-08-28T13:53:27.757Z,20.52
2022-08-28T13:55:55.770Z,20.65
2022-08-28T13:58:23.445Z,20.69
2022-08-28T14:00:53.459Z,20.73
2022-08-28T14:03:36.401Z,20.76
2022-08-28T14:06:08.490Z,20.70
2022-08-28T14:08:36.335Z,20.79
2022-08-28T14:11:04.355Z,20.86
2022-08-28T14:13:32.382Z,20.90
2022-08-28T14:16:02.482Z,20.92
2022-08-28T14:18:30.207Z,20.92
2022-08-28T14:20:58.018Z,20.84
2022-08-28T14:23:27.451Z,20.89
2022-08-28T14:25:55.191Z,20.93
2022-08-28T14:28:22.964Z,20.95
2022-08-28T14:30:52.766Z,21.01
2022-08-28T14:33:21.051Z,21.06
2022-08-28T14:35:50.518Z,21.14
2022-08-28T14:38:18.755Z,21.13
2022-08-28T14:40:48.098Z,21.14
2022-08-28T14:43:16.031Z,21.00
2022-08-28T14:45:46.124Z,20.89
2022-08-28T14:48:14.801Z,21.04
2022-08-28T14:50:44.639Z,21.03
2022-08-28T14:53:13.823Z,21.12
2022-08-28T14:55:42.682Z,21.18
2022-08-28T14:58:12.379Z,21.23
2022-08-28T15:00:41.523Z,21.18
2022-08-28T15:03:09.520Z,21.13
2022-08-28T15:05:37.848Z,21.24
2022-08-28T15:08:10.979Z,21.44
2022-08-28T15:10:39.607Z,21.57
2022-08-28T15:13:09.978Z,21.56
2022-08-28T15:15:41.244Z,21.55
2022-08-28T15:18:10.198Z,21.63
2022-08-28T15:20:39.531Z,21.70
2022-08-28T15:23:07.275Z,21.66
2022-08-28T15:25:35.060Z,21.70
2022-08-28T15:28:03.273Z,21.70
2022-08-28T15:30:31.020Z,21.68
2022-08-28T15:33:00.136Z,21.61
2022-08-28T15:35:27.976Z,21.65
2022-08-28T15:37:55.590Z,21.67
2022-08-28T15:40:40.873Z,21.63
2022-08-28T15:43:08.886Z,21.66
2022-08-28T15:45:38.214Z,21.62
2022-08-28T15:48:08.009Z,21.58
2022-08-28T15:50:36.453Z,21.58
2022-08-28T15:53:06.614Z,21.56
2022-08-28T15:55:36.929Z,21.56
2022-08-28T15:58:13.632Z,21.58
2022-08-28T16:00:42.561Z,21.52
2022-08-28T16:03:11.993Z,21.45
2022-08-28T16:05:40.851Z,21.42
2022-08-28T16:08:10.007Z,21.42
2022-08-28T16:10:37.666Z,21.37
2022-08-28T16:13:06.826Z,21.34
2022-08-28T16:15:34.820Z,21.30
2022-08-28T16:18:02.558Z,21.29
2022-08-28T16:20:32.245Z,21.27
2022-08-28T16:22:59.781Z,21.22
2022-08-28T16:25:27.917Z,21.17
2022-08-28T16:27:56.306Z,21.14
2022-08-28T16:30:24.445Z,21.12
2022-08-28T16:32:52.436Z,21.07
2022-08-28T16:35:22.549Z,21.02
2022-08-28T16:37:51.879Z,20.96
2022-08-28T16:40:19.594Z,20.93
2022-08-28T16:42:51.299Z,20.92
2022-08-28T16:45:19.371Z,20.88
2022-08-28T16:47:47.162Z,20.83
2022-08-28T16:50:15.662Z,20.77
2022-08-28T16:52:43.418Z,20.75
2022-08-28T16:55:13.252Z,20.68
2022-08-28T16:57:41.154Z,20.61
2022-08-28T17:00:12.052Z,20.53
2022-08-28T17:02:41.618Z,20.48
2022-08-28T17:05:10.429Z,20.43
2022-08-28T17:07:39.772Z,20.38
2022-08-28T17:10:09.654Z,20.25
2022-08-28T17:12:38.716Z,20.20
2022-08-28T17:15:09.178Z,20.15
2022-08-28T17:17:39.390Z,20.06
2022-08-28T17:20:08.928Z,19.96
2022-08-28T17:22:35.703Z,19.89
2022-08-28T17:25:07.479Z,19.80
2022-08-28T17:27:36.707Z,19.71
2022-08-28T17:30:07.112Z,19.65
2022-08-28T17:32:34.878Z,19.56
2022-08-28T17:35:03.211Z,19.46
2022-08-28T17:37:31.714Z,19.37
2022-08-28T17:39:59.564Z,19.30
2022-08-28T17:42:27.914Z,19.26
2022-08-28T17:44:55.961Z,19.22
2022-08-28T17:47:30.689Z,19.23
2022-08-28T17:49:59.388Z,19.13
2022-08-28T17:52:27.791Z,18.99
2022-08-28T17:54:55.785Z,18.88
2022-08-28T17:57:24.563Z,18.82
2022-08-28T17:59:52.581Z,18.74
2022-08-28T18:02:20.774Z,18.61
2022-08-28T18:04:50.315Z,18.49
2022-08-28T18:07:18.184Z,18.44
2022-08-28T18:09:45.848Z,18.34
2022-08-28T18:12:13.641Z,18.30
2022-08-28T18:14:41.600Z,18.24
2022-08-28T18:17:10.758Z,18.19
2022-08-28T18:19:40.085Z,18.10
2022-08-28T18:22:10.700Z,17.98
2022-08-28T18:24:38.999Z,17.90
2022-08-28T18:27:08.813Z,17.79
2022-08-28T18:29:37.272Z,17.76
2022-08-28T18:32:05.072Z,17.72
2022-08-28T18:34:32.896Z,17.63
2022-08-28T18:37:00.911Z,17.68
2022-08-28T18:39:30.160Z,17.60
2022-08-28T18:41:59.047Z,17.52
2022-08-28T18:44:26.986Z,17.45
2022-08-28T18:46:54.905Z,17.36
2022-08-28T18:49:23.008Z,17.31
2022-08-28T18:51:53.375Z,17.27
2022-08-28T18:54:25.847Z,17.16
2022-08-28T18:57:03.953Z,17.07
2022-08-28T18:59:33.409Z,16.99
2022-08-28T19:02:03.522Z,16.85
2022-08-28T19:04:32.065Z,16.68
2022-08-28T19:06:59.947Z,16.50
2022-08-28T19:09:32.150Z,16.33
2022-08-28T19:12:02.339Z,16.21
2022-08-28T19:14:30.387Z,16.12
2022-08-28T19:16:58.414Z,16.05
2022-08-28T19:19:26.298Z,15.98
2022-08-28T19:21:54.567Z,15.95
2022-08-28T19:24:22.501Z,15.90
2022-08-28T19:26:50.347Z,15.82
2022-08-28T19:29:19.589Z,15.73
2022-08-28T19:31:47.575Z,15.64
2022-08-28T19:34:15.401Z,15.55
2022-08-28T19:36:43.378Z,15.48
2022-08-28T19:39:11.742Z,15.39
2022-08-28T19:41:39.875Z,15.31
2022-08-28T19:44:08.213Z,15.23
2022-08-28T19:46:39.098Z,15.15
2022-08-28T19:49:07.724Z,15.10
2022-08-28T19:51:39.510Z,15.09
2022-08-28T19:54:14.049Z,15.03
2022-08-28T19:56:43.767Z,15.04
2022-08-28T19:59:12.072Z,15.02
2022-08-28T20:01:43.859Z,14.97
2022-08-28T20:04:13.459Z,14.96
2022-08-28T20:06:41.469Z,14.92
2022-08-28T20:09:12.923Z,14.92
2022-08-28T20:11:42.109Z,14.88
2022-08-28T20:14:09.820Z,14.83
2022-08-28T20:16:39.992Z,14.76
2022-08-28T20:19:11.411Z,14.71
2022-08-28T20:21:43.650Z,14.67
2022-08-28T20:24:14.794Z,14.69
2022-08-28T20:26:42.532Z,14.71
2022-08-28T20:29:14.390Z,14.75
2022-08-28T20:31:47.280Z,14.80
2022-08-28T20:34:18.371Z,14.87
2022-08-28T20:36:46.767Z,14.92
2022-08-28T20:39:15.513Z,14.95
2022-08-28T20:41:44.422Z,14.95
2022-08-28T20:44:14.197Z,14.93
2022-08-28T20:46:42.579Z,14.91
2022-08-28T20:49:11.586Z,14.87
2022-08-28T20:51:54.031Z,14.81
2022-08-28T20:54:23.426Z,14.74
2022-08-28T20:56:52.167Z,14.69
2022-08-28T20:59:22.720Z,14.66
2022-08-28T21:01:51.559Z,14.58
2022-08-28T21:04:19.929Z,14.54
2022-08-28T21:06:49.095Z,14.50
2022-08-28T21:09:18.172Z,14.41
2022-08-28T21:11:46.234Z,14.38
2022-08-28T21:14:14.420Z,14.33
2022-08-28T21:16:43.957Z,14.31
2022-08-28T21:19:15.816Z,14.31
2022-08-28T21:21:44.738Z,14.29
2022-08-28T21:24:15.592Z,14.26
2022-08-28T21:26:44.033Z,14.26
2022-08-28T21:29:14.029Z,14.23
2022-08-28T21:31:43.059Z,14.18
2022-08-28T21:34:11.230Z,14.17
2022-08-28T21:36:44.891Z,14.19
2022-08-28T21:39:19.759Z,14.18
2022-08-28T21:41:48.515Z,14.17
2022-08-28T21:44:17.499Z,14.16
2022-08-28T21:46:45.149Z,14.16
2022-08-28T21:52:05.896Z,14.05
2022-08-28T21:54:34.978Z,14.02
2022-08-28T21:57:02.593Z,13.96
2022-08-28T21:59:33.042Z,13.93
2022-08-28T22:02:06.489Z,13.87
2022-08-28T22:04:34.726Z,13.87
2022-08-28T22:07:02.762Z,13.86
2022-08-28T22:09:30.588Z,13.86
2022-08-28T22:11:59.771Z,13.86
2022-08-28T22:14:28.520Z,13.89
2022-08-28T22:17:01.028Z,13.89
2022-08-28T22:19:29.023Z,13.86
2022-08-28T22:22:14.138Z,13.95
2022-08-28T22:24:42.081Z,13.96
2022-08-28T22:27:13.500Z,13.93
2022-08-28T22:29:41.717Z,13.90
2022-08-28T22:32:10.162Z,13.87
2022-08-28T22:34:41.969Z,13.87
2022-08-28T22:37:11.617Z,13.78
2022-08-28T22:39:39.527Z,13.71
2022-08-28T22:42:11.479Z,13.67
2022-08-28T22:44:40.648Z,13.61
2022-08-28T22:47:08.563Z,13.59
2022-08-28T22:49:39.659Z,13.51
2022-08-28T22:52:10.155Z,13.46
2022-08-28T22:54:38.285Z,13.44
2022-08-28T22:57:06.886Z,13.43
2022-08-28T22:59:34.961Z,13.40
2022-08-28T23:02:05.185Z,13.38
2022-08-28T23:04:33.927Z,13.37
2022-08-28T23:07:01.750Z,13.37
2022-08-28T23:09:29.814Z,13.38
2022-08-28T23:12:00.088Z,13.39
2022-08-28T23:14:28.510Z,13.42
2022-08-28T23:16:56.317Z,13.39
2022-08-28T23:19:25.649Z,13.37
2022-08-28T23:21:53.536Z,13.34
2022-08-28T23:24:21.094Z,13.29
2022-08-28T23:26:48.905Z,13.29
2022-08-28T23:29:16.838Z,13.29
2022-08-28T23:31:44.613Z,13.26
2022-08-28T23:34:12.341Z,13.23
2022-08-28T23:36:42.893Z,13.22
2022-08-28T23:39:11.322Z,13.22
2022-08-28T23:41:39.098Z,13.24
2022-08-28T23:44:09.122Z,13.22
2022-08-28T23:46:41.708Z,13.18
2022-08-28T23:49:10.852Z,13.15
2022-08-28T23:51:38.997Z,13.14
2022-08-28T23:54:08.990Z,13.14
2022-08-28T23:56:37.275Z,13.16
2022-08-28T23:59:05.515Z,13.11
